In Rescue
 
Wind Gusting 00 knots
03
December 15, 2019 6:08 PM EST
Weather Information
Wind Direction
  100 °
Wind Speed
  03 kt (3 mph)
Wind Gust
  00 kt (0 mph)
Altimeter
30.13 in
Visibility
3 SM
Temperature
00° C
32° F
Dewpoint
00° C
32° F
Humidity
100%
Sky Condition
Missing
MVFR

METAR KIMS 152308Z AUTO 10003KT 3SM 00/00 A3013 RMK AO1 SKY OBSCURED

FAA Disclaimer: The data displayed is for advisory purposes only and is not to be used for flight planning or operations.
Missing Cloud Data